sensor_id;sensor_type;location;lat;lon;timestamp;P1;durP1;ratioP1;P2;durP2;ratioP2
10246;SDS011;5168;47.854;7.944;2023-04-09T00:01:02;13.03;;;10.13;;
10246;SDS011;5168;47.854;7.944;2023-04-09T00:03:35;11.67;;;9.63;;
10246;SDS011;5168;47.854;7.944;2023-04-09T00:06:02;11.47;;;10.23;;
10246;SDS011;5168;47.854;7.944;2023-04-09T00:08:31;11.37;;;9.53;;
10246;SDS011;5168;47.854;7.944;2023-04-09T00:10:56;14.53;;;10.93;;
10246;SDS011;5168;47.854;7.944;2023-04-09T00:13:23;11.90;;;9.90;;
10246;SDS011;5168;47.854;7.944;2023-04-09T00:15:49;14.17;;;10.10;;
10246;SDS011;5168;47.854;7.944;2023-04-09T00:18:14;12.00;;;10.13;;
10246;SDS011;5168;47.854;7.944;2023-04-09T00:20:40;10.47;;;9.37;;
10246;SDS011;5168;47.854;7.944;2023-04-09T00:23:06;10.97;;;9.67;;
10246;SDS011;5168;47.854;7.944;2023-04-09T00:25:32;10.83;;;9.33;;
10246;SDS011;5168;47.854;7.944;2023-04-09T00:27:58;11.93;;;10.43;;
10246;SDS011;5168;47.854;7.944;2023-04-09T00:30:23;11.93;;;10.43;;
10246;SDS011;5168;47.854;7.944;2023-04-09T00:32:49;10.57;;;9.47;;
10246;SDS011;5168;47.854;7.944;2023-04-09T00:35:15;12.30;;;10.30;;
10246;SDS011;5168;47.854;7.944;2023-04-09T00:37:42;12.07;;;10.13;;
10246;SDS011;5168;47.854;7.944;2023-04-09T00:40:07;13.37;;;10.30;;
10246;SDS011;5168;47.854;7.944;2023-04-09T00:42:34;13.27;;;10.67;;
10246;SDS011;5168;47.854;7.944;2023-04-09T00:45:01;11.93;;;10.57;;
10246;SDS011;5168;47.854;7.944;2023-04-09T00:47:28;12.50;;;10.43;;
10246;SDS011;5168;47.854;7.944;2023-04-09T00:49:55;13.33;;;10.50;;
10246;SDS011;5168;47.854;7.944;2023-04-09T00:52:20;14.10;;;10.67;;
10246;SDS011;5168;47.854;7.944;2023-04-09T00:54:47;12.67;;;10.00;;
10246;SDS011;5168;47.854;7.944;2023-04-09T00:57:14;12.43;;;10.77;;
10246;SDS011;5168;47.854;7.944;2023-04-09T00:59:40;10.03;;;9.00;;
10246;SDS011;5168;47.854;7.944;2023-04-09T01:02:07;9.83;;;8.23;;
10246;SDS011;5168;47.854;7.944;2023-04-09T01:04:33;10.73;;;8.37;;
10246;SDS011;5168;47.854;7.944;2023-04-09T01:07:13;13.90;;;10.93;;
10246;SDS011;5168;47.854;7.944;2023-04-09T01:12:56;14.23;;;10.50;;
10246;SDS011;5168;47.854;7.944;2023-04-09T01:15:32;13.37;;;11.27;;
10246;SDS011;5168;47.854;7.944;2023-04-09T01:18:06;10.50;;;9.40;;
10246;SDS011;5168;47.854;7.944;2023-04-09T01:20:38;12.57;;;10.97;;
10246;SDS011;5168;47.854;7.944;2023-04-09T01:28:22;11.63;;;10.33;;
10246;SDS011;5168;47.854;7.944;2023-04-09T01:30:52;11.80;;;10.13;;
10246;SDS011;5168;47.854;7.944;2023-04-09T01:33:25;10.30;;;8.63;;
10246;SDS011;5168;47.854;7.944;2023-04-09T01:35:53;10.60;;;9.43;;
10246;SDS011;5168;47.854;7.944;2023-04-09T01:38:20;10.57;;;9.47;;
10246;SDS011;5168;47.854;7.944;2023-04-09T01:40:47;10.70;;;9.07;;
10246;SDS011;5168;47.854;7.944;2023-04-09T01:43:13;12.43;;;10.10;;
10246;SDS011;5168;47.854;7.944;2023-04-09T01:45:40;10.70;;;8.93;;
10246;SDS011;5168;47.854;7.944;2023-04-09T01:48:07;10.63;;;9.53;;
10246;SDS011;5168;47.854;7.944;2023-04-09T01:50:34;9.97;;;8.67;;
10246;SDS011;5168;47.854;7.944;2023-04-09T01:53:00;10.50;;;8.57;;
10246;SDS011;5168;47.854;7.944;2023-04-09T01:55:26;11.50;;;9.53;;
10246;SDS011;5168;47.854;7.944;2023-04-09T01:57:52;9.87;;;8.83;;
10246;SDS011;5168;47.854;7.944;2023-04-09T02:00:17;12.00;;;9.70;;
10246;SDS011;5168;47.854;7.944;2023-04-09T02:03:05;11.63;;;9.67;;
10246;SDS011;5168;47.854;7.944;2023-04-09T02:05:39;11.77;;;9.40;;
10246;SDS011;5168;47.854;7.944;2023-04-09T02:08:09;11.20;;;8.80;;
10246;SDS011;5168;47.854;7.944;2023-04-09T02:10:37;10.60;;;8.83;;
10246;SDS011;5168;47.854;7.944;2023-04-09T02:13:04;10.37;;;8.67;;
10246;SDS011;5168;47.854;7.944;2023-04-09T02:15:31;12.23;;;10.50;;
10246;SDS011;5168;47.854;7.944;2023-04-09T02:18:00;15.37;;;11.33;;
10246;SDS011;5168;47.854;7.944;2023-04-09T02:20:26;11.33;;;9.23;;
10246;SDS011;5168;47.854;7.944;2023-04-09T02:22:52;11.90;;;9.07;;
10246;SDS011;5168;47.854;7.944;2023-04-09T02:25:17;12.70;;;10.20;;
10246;SDS011;5168;47.854;7.944;2023-04-09T02:27:43;13.20;;;10.00;;
10246;SDS011;5168;47.854;7.944;2023-04-09T02:30:09;11.40;;;9.77;;
10246;SDS011;5168;47.854;7.944;2023-04-09T02:32:35;11.17;;;9.37;;
10246;SDS011;5168;47.854;7.944;2023-04-09T02:35:01;10.87;;;9.67;;
10246;SDS011;5168;47.854;7.944;2023-04-09T02:37:27;16.03;;;10.70;;
10246;SDS011;5168;47.854;7.944;2023-04-09T02:39:53;13.77;;;10.83;;
10246;SDS011;5168;47.854;7.944;2023-04-09T02:42:19;11.80;;;9.90;;
10246;SDS011;5168;47.854;7.944;2023-04-09T02:44:44;10.27;;;9.00;;
10246;SDS011;5168;47.854;7.944;2023-04-09T02:47:10;12.03;;;9.40;;
10246;SDS011;5168;47.854;7.944;2023-04-09T02:49:36;12.93;;;9.87;;
10246;SDS011;5168;47.854;7.944;2023-04-09T02:52:01;14.00;;;9.67;;
10246;SDS011;5168;47.854;7.944;2023-04-09T02:54:27;14.40;;;10.07;;
10246;SDS011;5168;47.854;7.944;2023-04-09T02:56:53;12.33;;;9.93;;
10246;SDS011;5168;47.854;7.944;2023-04-09T02:59:18;11.77;;;10.00;;
10246;SDS011;5168;47.854;7.944;2023-04-09T03:01:44;9.50;;;8.43;;
10246;SDS011;5168;47.854;7.944;2023-04-09T03:04:09;10.97;;;9.37;;
10246;SDS011;5168;47.854;7.944;2023-04-09T03:06:35;9.67;;;8.27;;
10246;SDS011;5168;47.854;7.944;2023-04-09T03:09:00;13.23;;;8.97;;
10246;SDS011;5168;47.854;7.944;2023-04-09T03:11:26;13.00;;;9.57;;
10246;SDS011;5168;47.854;7.944;2023-04-09T03:13:52;10.93;;;9.20;;
10246;SDS011;5168;47.854;7.944;2023-04-09T03:16:17;10.10;;;8.53;;
10246;SDS011;5168;47.854;7.944;2023-04-09T03:18:43;9.57;;;8.07;;
10246;SDS011;5168;47.854;7.944;2023-04-09T03:21:09;10.33;;;7.20;;
10246;SDS011;5168;47.854;7.944;2023-04-09T03:23:35;10.87;;;8.70;;
10246;SDS011;5168;47.854;7.944;2023-04-09T03:26:02;8.53;;;7.63;;
10246;SDS011;5168;47.854;7.944;2023-04-09T03:28:28;8.53;;;7.40;;
10246;SDS011;5168;47.854;7.944;2023-04-09T03:30:55;8.70;;;7.03;;
10246;SDS011;5168;47.854;7.944;2023-04-09T03:33:20;8.43;;;7.37;;
10246;SDS011;5168;47.854;7.944;2023-04-09T03:35:46;7.37;;;6.60;;
10246;SDS011;5168;47.854;7.944;2023-04-09T03:38:12;7.93;;;7.10;;
10246;SDS011;5168;47.854;7.944;2023-04-09T03:40:37;8.17;;;6.70;;
10246;SDS011;5168;47.854;7.944;2023-04-09T03:43:03;8.67;;;7.33;;
10246;SDS011;5168;47.854;7.944;2023-04-09T03:45:28;7.77;;;6.20;;
10246;SDS011;5168;47.854;7.944;2023-04-09T03:47:54;8.17;;;6.80;;
10246;SDS011;5168;47.854;7.944;2023-04-09T03:50:20;7.40;;;6.60;;
10246;SDS011;5168;47.854;7.944;2023-04-09T03:52:46;8.83;;;6.83;;
10246;SDS011;5168;47.854;7.944;2023-04-09T03:55:11;7.97;;;7.17;;
10246;SDS011;5168;47.854;7.944;2023-04-09T03:57:37;8.13;;;7.33;;
10246;SDS011;5168;47.854;7.944;2023-04-09T04:00:03;8.50;;;6.73;;
10246;SDS011;5168;47.854;7.944;2023-04-09T04:02:29;7.00;;;5.97;;
10246;SDS011;5168;47.854;7.944;2023-04-09T04:04:57;7.97;;;6.47;;
10246;SDS011;5168;47.854;7.944;2023-04-09T04:07:23;10.07;;;6.93;;
10246;SDS011;5168;47.854;7.944;2023-04-09T04:09:49;6.80;;;5.90;;
10246;SDS011;5168;47.854;7.944;2023-04-09T04:12:15;7.50;;;6.63;;
10246;SDS011;5168;47.854;7.944;2023-04-09T04:14:41;7.67;;;6.87;;
10246;SDS011;5168;47.854;7.944;2023-04-09T04:17:07;8.37;;;6.90;;
10246;SDS011;5168;47.854;7.944;2023-04-09T04:19:32;10.47;;;7.60;;
10246;SDS011;5168;47.854;7.944;2023-04-09T04:21:58;8.90;;;7.10;;
10246;SDS011;5168;47.854;7.944;2023-04-09T04:24:24;7.63;;;6.57;;
10246;SDS011;5168;47.854;7.944;2023-04-09T04:26:49;7.90;;;6.73;;
10246;SDS011;5168;47.854;7.944;2023-04-09T04:29:15;9.20;;;6.97;;
10246;SDS011;5168;47.854;7.944;2023-04-09T04:31:41;9.40;;;7.00;;
10246;SDS011;5168;47.854;7.944;2023-04-09T04:34:07;9.20;;;7.30;;
10246;SDS011;5168;47.854;7.944;2023-04-09T04:36:33;8.03;;;6.47;;
10246;SDS011;5168;47.854;7.944;2023-04-09T04:38:58;9.20;;;7.70;;
10246;SDS011;5168;47.854;7.944;2023-04-09T04:41:24;9.90;;;7.53;;
10246;SDS011;5168;47.854;7.944;2023-04-09T04:43:49;7.70;;;6.90;;
10246;SDS011;5168;47.854;7.944;2023-04-09T04:46:15;8.93;;;7.17;;
10246;SDS011;5168;47.854;7.944;2023-04-09T04:48:41;7.93;;;6.53;;
10246;SDS011;5168;47.854;7.944;2023-04-09T04:51:07;7.40;;;6.30;;
10246;SDS011;5168;47.854;7.944;2023-04-09T04:53:32;7.40;;;6.53;;
10246;SDS011;5168;47.854;7.944;2023-04-09T04:55:58;8.20;;;6.20;;
10246;SDS011;5168;47.854;7.944;2023-04-09T04:58:24;7.23;;;6.00;;
10246;SDS011;5168;47.854;7.944;2023-04-09T05:00:50;7.33;;;6.60;;
10246;SDS011;5168;47.854;7.944;2023-04-09T05:03:16;9.97;;;7.40;;
10246;SDS011;5168;47.854;7.944;2023-04-09T05:05:42;7.73;;;6.60;;
10246;SDS011;5168;47.854;7.944;2023-04-09T05:08:09;6.83;;;6.13;;
10246;SDS011;5168;47.854;7.944;2023-04-09T05:10:35;7.10;;;6.23;;
10246;SDS011;5168;47.854;7.944;2023-04-09T05:13:00;6.73;;;6.03;;
10246;SDS011;5168;47.854;7.944;2023-04-09T05:15:26;7.30;;;6.60;;
10246;SDS011;5168;47.854;7.944;2023-04-09T05:17:53;8.23;;;6.47;;
10246;SDS011;5168;47.854;7.944;2023-04-09T05:20:18;8.30;;;6.43;;
10246;SDS011;5168;47.854;7.944;2023-04-09T05:22:44;8.00;;;6.27;;
10246;SDS011;5168;47.854;7.944;2023-04-09T05:25:10;7.40;;;5.70;;
10246;SDS011;5168;47.854;7.944;2023-04-09T05:27:36;6.07;;;5.40;;
10246;SDS011;5168;47.854;7.944;2023-04-09T05:30:01;6.70;;;5.63;;
10246;SDS011;5168;47.854;7.944;2023-04-09T05:32:27;5.60;;;4.93;;
10246;SDS011;5168;47.854;7.944;2023-04-09T05:34:53;6.20;;;5.50;;
10246;SDS011;5168;47.854;7.944;2023-04-09T05:37:19;6.53;;;5.77;;
10246;SDS011;5168;47.854;7.944;2023-04-09T05:39:45;7.20;;;6.47;;
10246;SDS011;5168;47.854;7.944;2023-04-09T05:42:11;6.10;;;5.50;;
10246;SDS011;5168;47.854;7.944;2023-04-09T05:44:37;5.83;;;5.13;;
10246;SDS011;5168;47.854;7.944;2023-04-09T05:47:02;5.90;;;5.30;;
10246;SDS011;5168;47.854;7.944;2023-04-09T05:49:29;6.73;;;5.47;;
10246;SDS011;5168;47.854;7.944;2023-04-09T05:51:54;5.80;;;5.17;;
10246;SDS011;5168;47.854;7.944;2023-04-09T05:54:21;6.63;;;5.93;;
10246;SDS011;5168;47.854;7.944;2023-04-09T05:56:47;7.27;;;6.50;;
10246;SDS011;5168;47.854;7.944;2023-04-09T05:59:12;6.23;;;5.40;;
10246;SDS011;5168;47.854;7.944;2023-04-09T06:01:38;6.57;;;5.43;;
10246;SDS011;5168;47.854;7.944;2023-04-09T06:04:05;6.73;;;6.03;;
10246;SDS011;5168;47.854;7.944;2023-04-09T06:06:31;7.10;;;6.27;;
10246;SDS011;5168;47.854;7.944;2023-04-09T06:08:57;6.70;;;6.07;;
10246;SDS011;5168;47.854;7.944;2023-04-09T06:11:22;6.97;;;6.27;;
10246;SDS011;5168;47.854;7.944;2023-04-09T06:13:48;7.67;;;6.27;;
10246;SDS011;5168;47.854;7.944;2023-04-09T06:16:13;6.83;;;5.57;;
10246;SDS011;5168;47.854;7.944;2023-04-09T06:18:39;6.77;;;6.03;;
10246;SDS011;5168;47.854;7.944;2023-04-09T06:21:07;7.27;;;6.43;;
10246;SDS011;5168;47.854;7.944;2023-04-09T06:23:33;7.90;;;6.30;;
10246;SDS011;5168;47.854;7.944;2023-04-09T06:26:00;6.17;;;5.57;;
10246;SDS011;5168;47.854;7.944;2023-04-09T06:28:27;6.30;;;5.70;;
10246;SDS011;5168;47.854;7.944;2023-04-09T06:30:53;5.10;;;4.60;;
10246;SDS011;5168;47.854;7.944;2023-04-09T06:33:20;4.70;;;4.20;;
10246;SDS011;5168;47.854;7.944;2023-04-09T06:35:46;4.90;;;4.33;;
10246;SDS011;5168;47.854;7.944;2023-04-09T06:38:13;5.50;;;4.97;;
10246;SDS011;5168;47.854;7.944;2023-04-09T06:40:39;4.67;;;4.20;;
10246;SDS011;5168;47.854;7.944;2023-04-09T06:43:05;5.57;;;4.97;;
10246;SDS011;5168;47.854;7.944;2023-04-09T06:45:32;4.97;;;4.50;;
10246;SDS011;5168;47.854;7.944;2023-04-09T06:48:01;5.17;;;4.67;;
10246;SDS011;5168;47.854;7.944;2023-04-09T06:50:26;5.33;;;4.83;;
10246;SDS011;5168;47.854;7.944;2023-04-09T06:52:52;4.87;;;4.37;;
10246;SDS011;5168;47.854;7.944;2023-04-09T06:55:18;5.07;;;4.60;;
10246;SDS011;5168;47.854;7.944;2023-04-09T06:57:44;5.17;;;4.67;;
10246;SDS011;5168;47.854;7.944;2023-04-09T07:00:10;4.87;;;4.47;;
10246;SDS011;5168;47.854;7.944;2023-04-09T07:02:37;4.77;;;4.37;;
10246;SDS011;5168;47.854;7.944;2023-04-09T07:05:03;4.60;;;4.20;;
10246;SDS011;5168;47.854;7.944;2023-04-09T07:07:29;5.07;;;4.13;;
10246;SDS011;5168;47.854;7.944;2023-04-09T07:09:56;4.83;;;4.20;;
10246;SDS011;5168;47.854;7.944;2023-04-09T07:12:25;4.40;;;4.00;;
10246;SDS011;5168;47.854;7.944;2023-04-09T07:14:51;4.10;;;3.80;;
10246;SDS011;5168;47.854;7.944;2023-04-09T07:17:17;4.40;;;4.00;;
10246;SDS011;5168;47.854;7.944;2023-04-09T07:19:42;4.17;;;3.77;;
10246;SDS011;5168;47.854;7.944;2023-04-09T07:22:08;3.90;;;3.60;;
10246;SDS011;5168;47.854;7.944;2023-04-09T07:24:34;3.93;;;3.63;;
10246;SDS011;5168;47.854;7.944;2023-04-09T07:27:02;4.17;;;3.77;;
10246;SDS011;5168;47.854;7.944;2023-04-09T07:29:28;3.67;;;3.37;;
10246;SDS011;5168;47.854;7.944;2023-04-09T07:31:53;3.80;;;3.50;;
10246;SDS011;5168;47.854;7.944;2023-04-09T07:34:20;3.80;;;3.50;;
10246;SDS011;5168;47.854;7.944;2023-04-09T07:36:46;3.37;;;3.07;;
10246;SDS011;5168;47.854;7.944;2023-04-09T07:39:12;3.40;;;3.10;;
10246;SDS011;5168;47.854;7.944;2023-04-09T07:41:39;3.43;;;3.13;;
10246;SDS011;5168;47.854;7.944;2023-04-09T07:44:06;3.47;;;3.20;;
10246;SDS011;5168;47.854;7.944;2023-04-09T07:46:32;3.77;;;3.47;;
10246;SDS011;5168;47.854;7.944;2023-04-09T07:48:58;3.43;;;3.03;;
10246;SDS011;5168;47.854;7.944;2023-04-09T07:51:24;2.70;;;2.50;;
10246;SDS011;5168;47.854;7.944;2023-04-09T07:53:51;4.53;;;3.40;;
10246;SDS011;5168;47.854;7.944;2023-04-09T07:56:16;3.90;;;3.60;;
10246;SDS011;5168;47.854;7.944;2023-04-09T07:58:43;3.00;;;2.80;;
10246;SDS011;5168;47.854;7.944;2023-04-09T08:01:09;3.47;;;3.17;;
10246;SDS011;5168;47.854;7.944;2023-04-09T08:03:35;3.30;;;3.00;;
10246;SDS011;5168;47.854;7.944;2023-04-09T08:06:02;3.23;;;3.03;;
10246;SDS011;5168;47.854;7.944;2023-04-09T08:08:28;3.30;;;3.10;;
10246;SDS011;5168;47.854;7.944;2023-04-09T08:10:54;3.60;;;3.30;;
10246;SDS011;5168;47.854;7.944;2023-04-09T08:13:22;3.37;;;3.07;;
10246;SDS011;5168;47.854;7.944;2023-04-09T08:15:49;3.03;;;2.80;;
10246;SDS011;5168;47.854;7.944;2023-04-09T08:18:15;3.60;;;3.30;;
10246;SDS011;5168;47.854;7.944;2023-04-09T08:20:42;2.90;;;2.70;;
10246;SDS011;5168;47.854;7.944;2023-04-09T08:23:09;3.27;;;2.97;;
10246;SDS011;5168;47.854;7.944;2023-04-09T08:25:35;3.20;;;3.00;;
10246;SDS011;5168;47.854;7.944;2023-04-09T08:28:01;3.50;;;3.20;;
10246;SDS011;5168;47.854;7.944;2023-04-09T08:30:28;3.73;;;3.40;;
10246;SDS011;5168;47.854;7.944;2023-04-09T08:32:54;3.70;;;3.40;;
10246;SDS011;5168;47.854;7.944;2023-04-09T08:35:20;3.47;;;3.17;;
10246;SDS011;5168;47.854;7.944;2023-04-09T08:37:46;3.70;;;3.40;;
10246;SDS011;5168;47.854;7.944;2023-04-09T08:40:12;3.90;;;3.60;;
10246;SDS011;5168;47.854;7.944;2023-04-09T08:42:41;4.13;;;3.60;;
10246;SDS011;5168;47.854;7.944;2023-04-09T08:45:11;3.30;;;3.00;;
10246;SDS011;5168;47.854;7.944;2023-04-09T08:47:38;3.47;;;3.17;;
10246;SDS011;5168;47.854;7.944;2023-04-09T08:50:06;3.40;;;3.10;;
10246;SDS011;5168;47.854;7.944;2023-04-09T08:52:34;3.73;;;3.43;;
10246;SDS011;5168;47.854;7.944;2023-04-09T08:55:02;4.13;;;3.73;;
10246;SDS011;5168;47.854;7.944;2023-04-09T08:57:27;4.10;;;3.70;;
10246;SDS011;5168;47.854;7.944;2023-04-09T08:59:54;3.60;;;3.30;;
10246;SDS011;5168;47.854;7.944;2023-04-09T09:02:22;3.60;;;3.30;;
10246;SDS011;5168;47.854;7.944;2023-04-09T09:04:48;4.23;;;3.40;;
10246;SDS011;5168;47.854;7.944;2023-04-09T09:07:15;3.23;;;2.93;;
10246;SDS011;5168;47.854;7.944;2023-04-09T09:09:51;3.90;;;3.53;;
10246;SDS011;5168;47.854;7.944;2023-04-09T09:12:34;3.20;;;2.90;;
10246;SDS011;5168;47.854;7.944;2023-04-09T09:15:04;4.00;;;3.60;;
10246;SDS011;5168;47.854;7.944;2023-04-09T09:17:55;3.57;;;3.27;;
10246;SDS011;5168;47.854;7.944;2023-04-09T09:20:23;3.63;;;3.33;;
10246;SDS011;5168;47.854;7.944;2023-04-09T09:22:50;3.50;;;3.20;;
10246;SDS011;5168;47.854;7.944;2023-04-09T09:25:16;3.60;;;3.30;;
10246;SDS011;5168;47.854;7.944;2023-04-09T09:27:42;3.13;;;2.83;;
10246;SDS011;5168;47.854;7.944;2023-04-09T09:30:08;3.93;;;3.57;;
10246;SDS011;5168;47.854;7.944;2023-04-09T09:35:49;3.00;;;2.80;;
10246;SDS011;5168;47.854;7.944;2023-04-09T09:38:16;3.10;;;2.90;;
10246;SDS011;5168;47.854;7.944;2023-04-09T09:40:42;2.60;;;2.40;;
10246;SDS011;5168;47.854;7.944;2023-04-09T09:43:08;2.90;;;2.70;;
10246;SDS011;5168;47.854;7.944;2023-04-09T09:45:35;3.07;;;2.77;;
10246;SDS011;5168;47.854;7.944;2023-04-09T09:48:02;2.87;;;2.67;;
10246;SDS011;5168;47.854;7.944;2023-04-09T09:50:28;2.70;;;2.50;;
10246;SDS011;5168;47.854;7.944;2023-04-09T09:53:05;2.97;;;2.77;;
10246;SDS011;5168;47.854;7.944;2023-04-09T09:55:32;3.50;;;3.17;;
10246;SDS011;5168;47.854;7.944;2023-04-09T09:58:00;2.70;;;2.50;;
10246;SDS011;5168;47.854;7.944;2023-04-09T10:00:31;3.50;;;3.20;;
10246;SDS011;5168;47.854;7.944;2023-04-09T10:03:04;3.43;;;3.13;;
10246;SDS011;5168;47.854;7.944;2023-04-09T10:05:38;2.97;;;2.70;;
10246;SDS011;5168;47.854;7.944;2023-04-09T10:08:05;2.73;;;2.53;;
10246;SDS011;5168;47.854;7.944;2023-04-09T10:10:32;3.70;;;3.40;;
10246;SDS011;5168;47.854;7.944;2023-04-09T10:12:59;3.30;;;3.00;;
10246;SDS011;5168;47.854;7.944;2023-04-09T10:15:27;4.23;;;3.40;;
10246;SDS011;5168;47.854;7.944;2023-04-09T10:17:55;3.87;;;3.57;;
10246;SDS011;5168;47.854;7.944;2023-04-09T10:20:23;3.20;;;3.00;;
10246;SDS011;5168;47.854;7.944;2023-04-09T10:22:54;3.43;;;3.13;;
10246;SDS011;5168;47.854;7.944;2023-04-09T10:25:21;3.40;;;3.10;;
10246;SDS011;5168;47.854;7.944;2023-04-09T10:28:00;4.80;;;3.70;;
10246;SDS011;5168;47.854;7.944;2023-04-09T10:30:30;3.30;;;3.10;;
10246;SDS011;5168;47.854;7.944;2023-04-09T10:33:07;3.23;;;3.03;;
10246;SDS011;5168;47.854;7.944;2023-04-09T10:35:45;3.20;;;2.90;;
10246;SDS011;5168;47.854;7.944;2023-04-09T10:38:13;3.40;;;3.10;;
10246;SDS011;5168;47.854;7.944;2023-04-09T10:40:40;3.63;;;3.33;;
10246;SDS011;5168;47.854;7.944;2023-04-09T10:43:17;3.37;;;3.07;;
10246;SDS011;5168;47.854;7.944;2023-04-09T10:45:47;3.60;;;3.30;;
10246;SDS011;5168;47.854;7.944;2023-04-09T10:48:18;3.87;;;3.57;;
10246;SDS011;5168;47.854;7.944;2023-04-09T10:50:45;3.33;;;2.90;;
10246;SDS011;5168;47.854;7.944;2023-04-09T10:53:22;3.50;;;3.20;;
10246;SDS011;5168;47.854;7.944;2023-04-09T10:55:49;3.70;;;3.40;;
10246;SDS011;5168;47.854;7.944;2023-04-09T10:58:16;3.77;;;3.47;;
10246;SDS011;5168;47.854;7.944;2023-04-09T11:00:46;3.67;;;3.37;;
10246;SDS011;5168;47.854;7.944;2023-04-09T11:05:46;3.60;;;3.30;;
10246;SDS011;5168;47.854;7.944;2023-04-09T11:08:14;3.60;;;3.30;;
10246;SDS011;5168;47.854;7.944;2023-04-09T11:10:41;4.20;;;3.80;;
10246;SDS011;5168;47.854;7.944;2023-04-09T11:13:15;3.90;;;3.60;;
10246;SDS011;5168;47.854;7.944;2023-04-09T11:15:43;4.20;;;3.80;;
10246;SDS011;5168;47.854;7.944;2023-04-09T11:18:13;3.60;;;3.30;;
10246;SDS011;5168;47.854;7.944;2023-04-09T11:20:49;3.27;;;2.97;;
10246;SDS011;5168;47.854;7.944;2023-04-09T11:23:22;3.50;;;3.20;;
10246;SDS011;5168;47.854;7.944;2023-04-09T11:25:49;3.67;;;3.37;;
10246;SDS011;5168;47.854;7.944;2023-04-09T11:28:15;3.73;;;3.43;;
10246;SDS011;5168;47.854;7.944;2023-04-09T11:30:41;3.30;;;3.03;;
10246;SDS011;5168;47.854;7.944;2023-04-09T11:33:07;4.63;;;3.90;;
10246;SDS011;5168;47.854;7.944;2023-04-09T11:35:34;4.10;;;3.70;;
10246;SDS011;5168;47.854;7.944;2023-04-09T11:38:06;3.90;;;3.60;;
10246;SDS011;5168;47.854;7.944;2023-04-09T11:40:32;3.47;;;3.17;;
10246;SDS011;5168;47.854;7.944;2023-04-09T11:42:58;3.60;;;3.30;;
10246;SDS011;5168;47.854;7.944;2023-04-09T11:45:26;3.30;;;3.00;;
10246;SDS011;5168;47.854;7.944;2023-04-09T11:47:53;3.67;;;3.37;;
10246;SDS011;5168;47.854;7.944;2023-04-09T11:50:19;3.07;;;2.80;;
10246;SDS011;5168;47.854;7.944;2023-04-09T11:52:45;3.27;;;3.00;;
10246;SDS011;5168;47.854;7.944;2023-04-09T11:55:11;3.60;;;3.20;;
10246;SDS011;5168;47.854;7.944;2023-04-09T11:57:52;3.57;;;3.20;;
10246;SDS011;5168;47.854;7.944;2023-04-09T12:00:25;3.40;;;3.10;;
10246;SDS011;5168;47.854;7.944;2023-04-09T12:02:57;3.00;;;2.70;;
10246;SDS011;5168;47.854;7.944;2023-04-09T12:05:27;3.37;;;3.07;;
10246;SDS011;5168;47.854;7.944;2023-04-09T12:07:59;3.43;;;3.13;;
10246;SDS011;5168;47.854;7.944;2023-04-09T12:10:33;3.43;;;3.13;;
10246;SDS011;5168;47.854;7.944;2023-04-09T12:13:09;2.93;;;2.73;;
10246;SDS011;5168;47.854;7.944;2023-04-09T12:15:35;2.90;;;2.70;;
10246;SDS011;5168;47.854;7.944;2023-04-09T12:18:02;3.60;;;2.73;;
10246;SDS011;5168;47.854;7.944;2023-04-09T12:20:35;3.17;;;2.90;;
10246;SDS011;5168;47.854;7.944;2023-04-09T12:23:04;3.77;;;3.40;;
10246;SDS011;5168;47.854;7.944;2023-04-09T12:25:32;3.40;;;3.10;;
10246;SDS011;5168;47.854;7.944;2023-04-09T12:27:59;4.20;;;3.13;;
10246;SDS011;5168;47.854;7.944;2023-04-09T12:30:25;3.40;;;3.10;;
10246;SDS011;5168;47.854;7.944;2023-04-09T12:32:51;3.00;;;2.80;;
10246;SDS011;5168;47.854;7.944;2023-04-09T12:35:17;3.10;;;2.80;;
10246;SDS011;5168;47.854;7.944;2023-04-09T12:37:43;2.97;;;2.73;;
10246;SDS011;5168;47.854;7.944;2023-04-09T12:40:09;3.30;;;3.00;;
10246;SDS011;5168;47.854;7.944;2023-04-09T12:42:37;2.73;;;2.53;;
10246;SDS011;5168;47.854;7.944;2023-04-09T12:45:10;3.10;;;2.80;;
10246;SDS011;5168;47.854;7.944;2023-04-09T12:47:37;2.80;;;2.60;;
10246;SDS011;5168;47.854;7.944;2023-04-09T12:50:06;3.30;;;3.00;;
10246;SDS011;5168;47.854;7.944;2023-04-09T12:52:33;2.60;;;2.40;;
10246;SDS011;5168;47.854;7.944;2023-04-09T12:54:59;3.70;;;3.40;;
10246;SDS011;5168;47.854;7.944;2023-04-09T12:57:25;3.27;;;2.97;;
10246;SDS011;5168;47.854;7.944;2023-04-09T12:59:51;2.70;;;2.47;;
10246;SDS011;5168;47.854;7.944;2023-04-09T13:02:17;2.50;;;2.30;;
10246;SDS011;5168;47.854;7.944;2023-04-09T13:04:43;2.67;;;2.47;;
10246;SDS011;5168;47.854;7.944;2023-04-09T13:07:09;2.70;;;2.50;;
10246;SDS011;5168;47.854;7.944;2023-04-09T13:09:37;2.63;;;2.40;;
10246;SDS011;5168;47.854;7.944;2023-04-09T13:12:02;2.57;;;2.37;;
10246;SDS011;5168;47.854;7.944;2023-04-09T13:14:28;2.73;;;2.53;;
10246;SDS011;5168;47.854;7.944;2023-04-09T13:16:53;2.93;;;2.57;;
10246;SDS011;5168;47.854;7.944;2023-04-09T13:19:19;2.87;;;2.67;;
10246;SDS011;5168;47.854;7.944;2023-04-09T13:21:44;2.67;;;2.47;;
10246;SDS011;5168;47.854;7.944;2023-04-09T13:24:10;2.63;;;2.43;;
10246;SDS011;5168;47.854;7.944;2023-04-09T13:26:36;2.60;;;2.33;;
10246;SDS011;5168;47.854;7.944;2023-04-09T13:29:01;3.03;;;2.70;;
10246;SDS011;5168;47.854;7.944;2023-04-09T13:31:28;3.20;;;2.90;;
10246;SDS011;5168;47.854;7.944;2023-04-09T13:33:53;2.80;;;2.60;;
10246;SDS011;5168;47.854;7.944;2023-04-09T13:36:19;2.67;;;2.43;;
10246;SDS011;5168;47.854;7.944;2023-04-09T13:38:45;3.07;;;2.77;;
10246;SDS011;5168;47.854;7.944;2023-04-09T13:41:10;2.67;;;2.37;;
10246;SDS011;5168;47.854;7.944;2023-04-09T13:43:36;3.43;;;3.13;;
10246;SDS011;5168;47.854;7.944;2023-04-09T13:46:01;2.90;;;2.60;;
10246;SDS011;5168;47.854;7.944;2023-04-09T13:48:28;2.50;;;2.30;;
10246;SDS011;5168;47.854;7.944;2023-04-09T13:50:54;3.03;;;2.77;;
10246;SDS011;5168;47.854;7.944;2023-04-09T13:53:20;2.80;;;2.60;;
10246;SDS011;5168;47.854;7.944;2023-04-09T13:55:48;3.50;;;3.20;;
10246;SDS011;5168;47.854;7.944;2023-04-09T13:58:13;3.30;;;3.00;;
10246;SDS011;5168;47.854;7.944;2023-04-09T14:00:39;2.80;;;2.60;;
10246;SDS011;5168;47.854;7.944;2023-04-09T14:03:05;3.07;;;2.83;;
10246;SDS011;5168;47.854;7.944;2023-04-09T14:05:30;2.90;;;2.70;;
10246;SDS011;5168;47.854;7.944;2023-04-09T14:07:56;3.00;;;2.80;;
10246;SDS011;5168;47.854;7.944;2023-04-09T14:10:22;3.00;;;2.70;;
10246;SDS011;5168;47.854;7.944;2023-04-09T14:12:48;3.23;;;3.03;;
10246;SDS011;5168;47.854;7.944;2023-04-09T14:15:13;2.80;;;2.60;;
10246;SDS011;5168;47.854;7.944;2023-04-09T14:17:39;2.90;;;2.60;;
10246;SDS011;5168;47.854;7.944;2023-04-09T14:20:05;2.87;;;2.57;;
10246;SDS011;5168;47.854;7.944;2023-04-09T14:22:31;3.20;;;2.90;;
10246;SDS011;5168;47.854;7.944;2023-04-09T14:24:56;3.13;;;2.90;;
10246;SDS011;5168;47.854;7.944;2023-04-09T14:27:23;3.27;;;2.97;;
10246;SDS011;5168;47.854;7.944;2023-04-09T14:29:49;3.37;;;3.07;;
10246;SDS011;5168;47.854;7.944;2023-04-09T14:32:14;3.70;;;3.40;;
10246;SDS011;5168;47.854;7.944;2023-04-09T14:34:40;3.30;;;3.00;;
10246;SDS011;5168;47.854;7.944;2023-04-09T14:37:06;3.37;;;3.10;;
10246;SDS011;5168;47.854;7.944;2023-04-09T14:39:32;3.30;;;3.00;;
10246;SDS011;5168;47.854;7.944;2023-04-09T14:41:57;3.20;;;2.90;;
10246;SDS011;5168;47.854;7.944;2023-04-09T14:44:23;3.30;;;3.00;;
10246;SDS011;5168;47.854;7.944;2023-04-09T14:46:50;4.40;;;3.50;;
10246;SDS011;5168;47.854;7.944;2023-04-09T14:49:18;3.80;;;3.00;;
10246;SDS011;5168;47.854;7.944;2023-04-09T14:51:47;3.47;;;3.17;;
10246;SDS011;5168;47.854;7.944;2023-04-09T14:54:12;3.63;;;3.33;;
10246;SDS011;5168;47.854;7.944;2023-04-09T14:56:38;3.70;;;3.40;;
10246;SDS011;5168;47.854;7.944;2023-04-09T14:59:03;3.83;;;3.47;;
10246;SDS011;5168;47.854;7.944;2023-04-09T15:01:29;3.87;;;3.47;;
10246;SDS011;5168;47.854;7.944;2023-04-09T15:03:54;3.33;;;3.03;;
10246;SDS011;5168;47.854;7.944;2023-04-09T15:06:20;3.53;;;3.23;;
10246;SDS011;5168;47.854;7.944;2023-04-09T15:08:46;3.67;;;3.37;;
10246;SDS011;5168;47.854;7.944;2023-04-09T15:11:14;3.13;;;2.90;;